sensor_id;sensor_type;location;lat;lon;timestamp;P1;durP1;ratioP1;P2;durP2;ratioP2
34278;SDS011;20538;51.528;9.942;2022-09-09T00:04:27;10.27;;;1.80;;
34278;SDS011;20538;51.528;9.942;2022-09-09T00:14:55;3.65;;;1.40;;
34278;SDS011;20538;51.528;9.942;2022-09-09T00:20:20;6.70;;;1.83;;
34278;SDS011;20538;51.528;9.942;2022-09-09T00:23:12;5.60;;;1.30;;
34278;SDS011;20538;51.528;9.942;2022-09-09T00:28:46;5.97;;;1.60;;
34278;SDS011;20538;51.528;9.942;2022-09-09T00:31:16;5.15;;;1.50;;
34278;SDS011;20538;51.528;9.942;2022-09-09T00:33:47;4.07;;;1.70;;
34278;SDS011;20538;51.528;9.942;2022-09-09T00:36:15;7.82;;;1.77;;
34278;SDS011;20538;51.528;9.942;2022-09-09T00:38:51;4.00;;;1.33;;
34278;SDS011;20538;51.528;9.942;2022-09-09T00:41:40;8.25;;;1.92;;
34278;SDS011;20538;51.528;9.942;2022-09-09T00:44:37;6.60;;;1.45;;
34278;SDS011;20538;51.528;9.942;2022-09-09T00:47:09;7.40;;;1.70;;
34278;SDS011;20538;51.528;9.942;2022-09-09T00:55:37;7.55;;;1.75;;
34278;SDS011;20538;51.528;9.942;2022-09-09T00:58:13;7.75;;;1.85;;
34278;SDS011;20538;51.528;9.942;2022-09-09T01:00:41;7.95;;;1.58;;
34278;SDS011;20538;51.528;9.942;2022-09-09T01:17:46;8.70;;;1.80;;
34278;SDS011;20538;51.528;9.942;2022-09-09T01:28:30;3.00;;;1.48;;
34278;SDS011;20538;51.528;9.942;2022-09-09T01:30:56;3.85;;;1.83;;
34278;SDS011;20538;51.528;9.942;2022-09-09T01:33:23;4.03;;;2.10;;
34278;SDS011;20538;51.528;9.942;2022-09-09T01:38:25;5.82;;;2.33;;
34278;SDS011;20538;51.528;9.942;2022-09-09T01:40:52;6.75;;;1.75;;
34278;SDS011;20538;51.528;9.942;2022-09-09T01:43:20;8.18;;;1.60;;
34278;SDS011;20538;51.528;9.942;2022-09-09T01:45:46;8.60;;;2.25;;
34278;SDS011;20538;51.528;9.942;2022-09-09T01:48:15;5.60;;;2.08;;
34278;SDS011;20538;51.528;9.942;2022-09-09T01:50:41;9.45;;;2.22;;
34278;SDS011;20538;51.528;9.942;2022-09-09T01:53:07;4.53;;;1.70;;
34278;SDS011;20538;51.528;9.942;2022-09-09T01:55:33;6.78;;;2.17;;
34278;SDS011;20538;51.528;9.942;2022-09-09T02:00:47;1.92;;;1.60;;
34278;SDS011;20538;51.528;9.942;2022-09-09T02:03:41;4.00;;;1.90;;
34278;SDS011;20538;51.528;9.942;2022-09-09T02:08:59;6.72;;;1.73;;
34278;SDS011;20538;51.528;9.942;2022-09-09T02:11:28;3.45;;;1.60;;
34278;SDS011;20538;51.528;9.942;2022-09-09T02:14:03;6.03;;;1.90;;
34278;SDS011;20538;51.528;9.942;2022-09-09T02:16:51;4.30;;;1.58;;
34278;SDS011;20538;51.528;9.942;2022-09-09T02:19:22;6.07;;;1.95;;
34278;SDS011;20538;51.528;9.942;2022-09-09T02:22:05;5.65;;;1.92;;
34278;SDS011;20538;51.528;9.942;2022-09-09T02:24:33;5.65;;;1.88;;
34278;SDS011;20538;51.528;9.942;2022-09-09T02:27:01;6.22;;;2.40;;
34278;SDS011;20538;51.528;9.942;2022-09-09T02:29:31;3.92;;;1.85;;
34278;SDS011;20538;51.528;9.942;2022-09-09T02:32:01;3.78;;;1.60;;
34278;SDS011;20538;51.528;9.942;2022-09-09T02:34:31;8.23;;;1.63;;
34278;SDS011;20538;51.528;9.942;2022-09-09T02:37:01;4.88;;;1.90;;
34278;SDS011;20538;51.528;9.942;2022-09-09T02:39:29;7.43;;;2.03;;
34278;SDS011;20538;51.528;9.942;2022-09-09T02:41:55;2.97;;;1.60;;
34278;SDS011;20538;51.528;9.942;2022-09-09T02:44:21;4.93;;;1.52;;
34278;SDS011;20538;51.528;9.942;2022-09-09T02:50:08;3.63;;;1.60;;
34278;SDS011;20538;51.528;9.942;2022-09-09T02:55:38;6.55;;;2.20;;
34278;SDS011;20538;51.528;9.942;2022-09-09T02:58:11;5.35;;;1.85;;
34278;SDS011;20538;51.528;9.942;2022-09-09T03:00:42;3.58;;;1.70;;
34278;SDS011;20538;51.528;9.942;2022-09-09T03:03:11;6.35;;;1.98;;
34278;SDS011;20538;51.528;9.942;2022-09-09T03:05:37;5.28;;;1.52;;
34278;SDS011;20538;51.528;9.942;2022-09-09T03:08:03;9.32;;;1.85;;
34278;SDS011;20538;51.528;9.942;2022-09-09T03:10:30;4.35;;;1.65;;
34278;SDS011;20538;51.528;9.942;2022-09-09T03:12:56;5.32;;;1.88;;
34278;SDS011;20538;51.528;9.942;2022-09-09T03:15:22;5.55;;;1.88;;
34278;SDS011;20538;51.528;9.942;2022-09-09T03:17:48;6.13;;;1.60;;
34278;SDS011;20538;51.528;9.942;2022-09-09T03:20:14;6.53;;;2.22;;
34278;SDS011;20538;51.528;9.942;2022-09-09T03:22:39;8.25;;;1.80;;
34278;SDS011;20538;51.528;9.942;2022-09-09T03:25:05;9.85;;;1.85;;
34278;SDS011;20538;51.528;9.942;2022-09-09T03:27:32;6.38;;;1.63;;
34278;SDS011;20538;51.528;9.942;2022-09-09T03:29:57;5.40;;;1.60;;
34278;SDS011;20538;51.528;9.942;2022-09-09T03:32:23;4.30;;;1.50;;
34278;SDS011;20538;51.528;9.942;2022-09-09T03:34:50;6.93;;;2.50;;
34278;SDS011;20538;51.528;9.942;2022-09-09T03:37:17;6.38;;;1.80;;
34278;SDS011;20538;51.528;9.942;2022-09-09T03:39:43;6.63;;;2.00;;
34278;SDS011;20538;51.528;9.942;2022-09-09T03:42:09;5.78;;;1.80;;
34278;SDS011;20538;51.528;9.942;2022-09-09T03:44:37;7.00;;;2.08;;
34278;SDS011;20538;51.528;9.942;2022-09-09T03:47:03;7.53;;;1.95;;
34278;SDS011;20538;51.528;9.942;2022-09-09T03:49:28;8.18;;;1.80;;
34278;SDS011;20538;51.528;9.942;2022-09-09T03:51:55;7.50;;;2.00;;
34278;SDS011;20538;51.528;9.942;2022-09-09T03:54:23;4.78;;;1.60;;
34278;SDS011;20538;51.528;9.942;2022-09-09T03:56:49;5.72;;;1.50;;
34278;SDS011;20538;51.528;9.942;2022-09-09T03:59:15;5.55;;;1.88;;
34278;SDS011;20538;51.528;9.942;2022-09-09T04:01:40;4.50;;;1.70;;
34278;SDS011;20538;51.528;9.942;2022-09-09T04:04:06;8.43;;;2.22;;
34278;SDS011;20538;51.528;9.942;2022-09-09T04:06:32;4.88;;;1.67;;
34278;SDS011;20538;51.528;9.942;2022-09-09T04:08:58;8.20;;;2.58;;
34278;SDS011;20538;51.528;9.942;2022-09-09T04:11:23;6.95;;;1.75;;
34278;SDS011;20538;51.528;9.942;2022-09-09T04:13:49;7.88;;;2.20;;
34278;SDS011;20538;51.528;9.942;2022-09-09T04:16:15;8.43;;;2.00;;
34278;SDS011;20538;51.528;9.942;2022-09-09T04:18:41;8.07;;;2.05;;
34278;SDS011;20538;51.528;9.942;2022-09-09T04:21:08;7.95;;;1.92;;
34278;SDS011;20538;51.528;9.942;2022-09-09T04:23:35;7.85;;;2.40;;
34278;SDS011;20538;51.528;9.942;2022-09-09T04:26:01;4.97;;;1.75;;
34278;SDS011;20538;51.528;9.942;2022-09-09T04:28:28;5.03;;;1.95;;
34278;SDS011;20538;51.528;9.942;2022-09-09T04:30:56;3.53;;;2.20;;
34278;SDS011;20538;51.528;9.942;2022-09-09T04:33:25;4.60;;;1.65;;
34278;SDS011;20538;51.528;9.942;2022-09-09T04:35:51;6.15;;;2.00;;
34278;SDS011;20538;51.528;9.942;2022-09-09T04:38:18;5.57;;;2.08;;
34278;SDS011;20538;51.528;9.942;2022-09-09T04:40:47;5.68;;;2.13;;
34278;SDS011;20538;51.528;9.942;2022-09-09T04:43:13;4.45;;;1.90;;
34278;SDS011;20538;51.528;9.942;2022-09-09T04:45:39;6.50;;;2.28;;
34278;SDS011;20538;51.528;9.942;2022-09-09T04:48:06;4.50;;;1.88;;
34278;SDS011;20538;51.528;9.942;2022-09-09T04:50:32;4.80;;;1.77;;
34278;SDS011;20538;51.528;9.942;2022-09-09T04:53:02;5.20;;;1.88;;
34278;SDS011;20538;51.528;9.942;2022-09-09T04:55:29;11.70;;;2.35;;
34278;SDS011;20538;51.528;9.942;2022-09-09T04:57:56;4.80;;;1.80;;
34278;SDS011;20538;51.528;9.942;2022-09-09T05:00:25;3.92;;;2.00;;
34278;SDS011;20538;51.528;9.942;2022-09-09T05:02:51;4.57;;;2.10;;
34278;SDS011;20538;51.528;9.942;2022-09-09T05:05:16;3.50;;;1.70;;
34278;SDS011;20538;51.528;9.942;2022-09-09T05:07:43;5.13;;;2.13;;
34278;SDS011;20538;51.528;9.942;2022-09-09T05:10:09;3.97;;;2.20;;
34278;SDS011;20538;51.528;9.942;2022-09-09T05:12:35;4.93;;;2.05;;
34278;SDS011;20538;51.528;9.942;2022-09-09T05:15:01;8.00;;;2.42;;
34278;SDS011;20538;51.528;9.942;2022-09-09T05:17:27;4.65;;;1.90;;
34278;SDS011;20538;51.528;9.942;2022-09-09T05:19:52;6.78;;;2.15;;
34278;SDS011;20538;51.528;9.942;2022-09-09T05:22:21;4.55;;;1.90;;
34278;SDS011;20538;51.528;9.942;2022-09-09T05:24:48;9.45;;;2.45;;
34278;SDS011;20538;51.528;9.942;2022-09-09T05:27:16;5.97;;;2.10;;
34278;SDS011;20538;51.528;9.942;2022-09-09T05:29:45;6.55;;;2.10;;
34278;SDS011;20538;51.528;9.942;2022-09-09T05:32:11;5.13;;;2.25;;
34278;SDS011;20538;51.528;9.942;2022-09-09T05:34:38;4.32;;;2.10;;
34278;SDS011;20538;51.528;9.942;2022-09-09T05:37:04;4.00;;;1.80;;
34278;SDS011;20538;51.528;9.942;2022-09-09T05:39:30;6.40;;;2.15;;
34278;SDS011;20538;51.528;9.942;2022-09-09T05:41:55;5.80;;;1.90;;
34278;SDS011;20538;51.528;9.942;2022-09-09T05:44:21;4.68;;;1.75;;
34278;SDS011;20538;51.528;9.942;2022-09-09T05:46:50;6.82;;;2.92;;
34278;SDS011;20538;51.528;9.942;2022-09-09T05:49:15;7.22;;;2.05;;
34278;SDS011;20538;51.528;9.942;2022-09-09T05:51:41;2.90;;;1.42;;
34278;SDS011;20538;51.528;9.942;2022-09-09T05:54:08;5.70;;;1.60;;
34278;SDS011;20538;51.528;9.942;2022-09-09T05:56:33;8.95;;;1.83;;
34278;SDS011;20538;51.528;9.942;2022-09-09T05:58:59;5.15;;;1.80;;
34278;SDS011;20538;51.528;9.942;2022-09-09T06:03:53;8.05;;;1.92;;
34278;SDS011;20538;51.528;9.942;2022-09-09T06:06:20;4.10;;;1.80;;
34278;SDS011;20538;51.528;9.942;2022-09-09T06:08:48;5.22;;;1.70;;
34278;SDS011;20538;51.528;9.942;2022-09-09T06:13:45;5.65;;;1.83;;
34278;SDS011;20538;51.528;9.942;2022-09-09T06:16:15;8.98;;;1.90;;
34278;SDS011;20538;51.528;9.942;2022-09-09T06:18:42;3.85;;;1.60;;
34278;SDS011;20538;51.528;9.942;2022-09-09T06:21:15;2.15;;;1.33;;
34278;SDS011;20538;51.528;9.942;2022-09-09T06:24:03;4.78;;;1.40;;
34278;SDS011;20538;51.528;9.942;2022-09-09T06:26:29;3.50;;;1.50;;
34278;SDS011;20538;51.528;9.942;2022-09-09T06:28:56;3.15;;;1.55;;
34278;SDS011;20538;51.528;9.942;2022-09-09T06:31:23;4.18;;;1.25;;
34278;SDS011;20538;51.528;9.942;2022-09-09T06:33:51;5.05;;;1.42;;
34278;SDS011;20538;51.528;9.942;2022-09-09T06:36:19;6.45;;;1.42;;
34278;SDS011;20538;51.528;9.942;2022-09-09T06:38:46;5.65;;;1.75;;
34278;SDS011;20538;51.528;9.942;2022-09-09T06:41:14;9.55;;;1.80;;
34278;SDS011;20538;51.528;9.942;2022-09-09T06:43:41;6.25;;;1.67;;
34278;SDS011;20538;51.528;9.942;2022-09-09T06:46:09;3.88;;;1.55;;
34278;SDS011;20538;51.528;9.942;2022-09-09T06:48:38;3.92;;;1.63;;
34278;SDS011;20538;51.528;9.942;2022-09-09T06:53:35;4.50;;;1.63;;
34278;SDS011;20538;51.528;9.942;2022-09-09T06:56:13;7.35;;;1.70;;
34278;SDS011;20538;51.528;9.942;2022-09-09T06:58:42;6.30;;;1.40;;
34278;SDS011;20538;51.528;9.942;2022-09-09T07:01:10;5.85;;;1.55;;
34278;SDS011;20538;51.528;9.942;2022-09-09T07:03:38;4.60;;;1.38;;
34278;SDS011;20538;51.528;9.942;2022-09-09T07:06:04;4.55;;;1.67;;
34278;SDS011;20538;51.528;9.942;2022-09-09T07:08:31;4.57;;;1.65;;
34278;SDS011;20538;51.528;9.942;2022-09-09T07:11:03;7.93;;;1.40;;
34278;SDS011;20538;51.528;9.942;2022-09-09T07:13:30;5.90;;;1.55;;
34278;SDS011;20538;51.528;9.942;2022-09-09T07:16:03;11.13;;;1.38;;
34278;SDS011;20538;51.528;9.942;2022-09-09T07:18:33;4.07;;;1.48;;
34278;SDS011;20538;51.528;9.942;2022-09-09T07:20:59;6.35;;;1.33;;
34278;SDS011;20538;51.528;9.942;2022-09-09T07:23:27;3.50;;;1.50;;
34278;SDS011;20538;51.528;9.942;2022-09-09T07:25:53;3.90;;;1.50;;
34278;SDS011;20538;51.528;9.942;2022-09-09T07:28:19;7.55;;;1.52;;
34278;SDS011;20538;51.528;9.942;2022-09-09T07:31:01;4.85;;;1.20;;
34278;SDS011;20538;51.528;9.942;2022-09-09T07:33:30;10.48;;;1.80;;
34278;SDS011;20538;51.528;9.942;2022-09-09T07:36:17;4.07;;;1.40;;
34278;SDS011;20538;51.528;9.942;2022-09-09T07:38:53;7.05;;;1.10;;
34278;SDS011;20538;51.528;9.942;2022-09-09T07:41:25;4.07;;;1.40;;
34278;SDS011;20538;51.528;9.942;2022-09-09T07:43:59;6.38;;;1.50;;
34278;SDS011;20538;51.528;9.942;2022-09-09T07:46:29;6.88;;;1.90;;
34278;SDS011;20538;51.528;9.942;2022-09-09T07:48:56;6.03;;;1.20;;
34278;SDS011;20538;51.528;9.942;2022-09-09T07:51:33;5.68;;;1.10;;
34278;SDS011;20538;51.528;9.942;2022-09-09T07:54:01;6.47;;;1.40;;
34278;SDS011;20538;51.528;9.942;2022-09-09T07:56:29;6.90;;;1.33;;
34278;SDS011;20538;51.528;9.942;2022-09-09T07:58:56;5.13;;;1.30;;
34278;SDS011;20538;51.528;9.942;2022-09-09T08:04:14;8.82;;;1.40;;
34278;SDS011;20538;51.528;9.942;2022-09-09T08:06:46;10.77;;;1.63;;
34278;SDS011;20538;51.528;9.942;2022-09-09T08:11:43;5.73;;;1.53;;
34278;SDS011;20538;51.528;9.942;2022-09-09T08:14:10;3.47;;;1.40;;
34278;SDS011;20538;51.528;9.942;2022-09-09T08:16:37;8.10;;;1.50;;
34278;SDS011;20538;51.528;9.942;2022-09-09T08:19:08;2.22;;;1.05;;
34278;SDS011;20538;51.528;9.942;2022-09-09T08:21:35;4.05;;;1.13;;
34278;SDS011;20538;51.528;9.942;2022-09-09T08:24:03;8.80;;;1.50;;
34278;SDS011;20538;51.528;9.942;2022-09-09T08:26:40;8.40;;;1.63;;
34278;SDS011;20538;51.528;9.942;2022-09-09T08:29:10;4.22;;;1.35;;
34278;SDS011;20538;51.528;9.942;2022-09-09T08:31:39;7.05;;;1.38;;
34278;SDS011;20538;51.528;9.942;2022-09-09T08:34:12;4.13;;;1.20;;
34278;SDS011;20538;51.528;9.942;2022-09-09T08:36:39;3.45;;;1.20;;
34278;SDS011;20538;51.528;9.942;2022-09-09T08:39:08;5.00;;;1.42;;
34278;SDS011;20538;51.528;9.942;2022-09-09T08:48:03;5.78;;;1.02;;
34278;SDS011;20538;51.528;9.942;2022-09-09T08:50:36;3.78;;;1.10;;
34278;SDS011;20538;51.528;9.942;2022-09-09T08:53:19;3.30;;;1.25;;
34278;SDS011;20538;51.528;9.942;2022-09-09T08:55:56;2.78;;;1.30;;
34278;SDS011;20538;51.528;9.942;2022-09-09T08:58:31;5.25;;;1.52;;
34278;SDS011;20538;51.528;9.942;2022-09-09T09:11:27;3.47;;;1.23;;
34278;SDS011;20538;51.528;9.942;2022-09-09T09:14:01;2.60;;;1.02;;
34278;SDS011;20538;51.528;9.942;2022-09-09T09:16:46;4.55;;;1.80;;
34278;SDS011;20538;51.528;9.942;2022-09-09T09:19:31;3.55;;;1.30;;
34278;SDS011;20538;51.528;9.942;2022-09-09T09:27:18;6.50;;;1.48;;
34278;SDS011;20538;51.528;9.942;2022-09-09T09:29:59;6.88;;;1.67;;
34278;SDS011;20538;51.528;9.942;2022-09-09T09:32:26;5.10;;;1.30;;
34278;SDS011;20538;51.528;9.942;2022-09-09T09:34:56;2.13;;;1.17;;
34278;SDS011;20538;51.528;9.942;2022-09-09T09:37:27;4.75;;;1.60;;
34278;SDS011;20538;51.528;9.942;2022-09-09T09:39:56;8.13;;;2.00;;
34278;SDS011;20538;51.528;9.942;2022-09-09T09:45:27;8.65;;;1.67;;
34278;SDS011;20538;51.528;9.942;2022-09-09T09:47:57;11.68;;;1.48;;
34278;SDS011;20538;51.528;9.942;2022-09-09T09:50:28;3.88;;;1.45;;
34278;SDS011;20538;51.528;9.942;2022-09-09T09:52:57;6.47;;;1.30;;
34278;SDS011;20538;51.528;9.942;2022-09-09T09:55:25;5.47;;;1.10;;
34278;SDS011;20538;51.528;9.942;2022-09-09T09:58:00;4.85;;;1.60;;
34278;SDS011;20538;51.528;9.942;2022-09-09T10:00:28;2.58;;;0.93;;
34278;SDS011;20538;51.528;9.942;2022-09-09T10:02:53;3.80;;;1.23;;
34278;SDS011;20538;51.528;9.942;2022-09-09T10:05:20;4.43;;;0.90;;
34278;SDS011;20538;51.528;9.942;2022-09-09T10:08:01;4.53;;;1.10;;
34278;SDS011;20538;51.528;9.942;2022-09-09T10:13:29;8.63;;;1.50;;
34278;SDS011;20538;51.528;9.942;2022-09-09T10:16:14;6.47;;;1.30;;
34278;SDS011;20538;51.528;9.942;2022-09-09T10:19:03;2.83;;;1.02;;
34278;SDS011;20538;51.528;9.942;2022-09-09T10:24:16;5.57;;;1.25;;
34278;SDS011;20538;51.528;9.942;2022-09-09T10:26:58;9.40;;;1.40;;
34278;SDS011;20538;51.528;9.942;2022-09-09T10:35:12;6.00;;;1.17;;
34278;SDS011;20538;51.528;9.942;2022-09-09T10:41:15;5.80;;;1.33;;
34278;SDS011;20538;51.528;9.942;2022-09-09T10:46:23;4.75;;;1.10;;
34278;SDS011;20538;51.528;9.942;2022-09-09T10:56:38;6.30;;;1.33;;
34278;SDS011;20538;51.528;9.942;2022-09-09T10:59:10;3.95;;;1.05;;
34278;SDS011;20538;51.528;9.942;2022-09-09T11:02:12;7.05;;;1.50;;
34278;SDS011;20538;51.528;9.942;2022-09-09T11:04:52;6.53;;;1.90;;
34278;SDS011;20538;51.528;9.942;2022-09-09T11:07:28;3.95;;;1.08;;
34278;SDS011;20538;51.528;9.942;2022-09-09T11:10:01;4.78;;;1.20;;
34278;SDS011;20538;51.528;9.942;2022-09-09T11:12:31;5.53;;;1.20;;
34278;SDS011;20538;51.528;9.942;2022-09-09T11:15:06;6.53;;;1.48;;
34278;SDS011;20538;51.528;9.942;2022-09-09T11:17:44;6.13;;;1.20;;
34278;SDS011;20538;51.528;9.942;2022-09-09T11:20:21;6.40;;;1.05;;
34278;SDS011;20538;51.528;9.942;2022-09-09T11:23:51;5.97;;;1.15;;
34278;SDS011;20538;51.528;9.942;2022-09-09T11:25:59;2.40;;;0.85;;
34278;SDS011;20538;51.528;9.942;2022-09-09T11:44:37;3.53;;;1.00;;
34278;SDS011;20538;51.528;9.942;2022-09-09T11:47:03;3.47;;;0.75;;
34278;SDS011;20538;51.528;9.942;2022-09-09T11:49:41;3.20;;;0.90;;
34278;SDS011;20538;51.528;9.942;2022-09-09T11:52:21;2.38;;;1.00;;
34278;SDS011;20538;51.528;9.942;2022-09-09T11:55:11;3.22;;;0.70;;
34278;SDS011;20538;51.528;9.942;2022-09-09T11:57:37;4.05;;;0.93;;
34278;SDS011;20538;51.528;9.942;2022-09-09T12:00:04;4.63;;;1.27;;
34278;SDS011;20538;51.528;9.942;2022-09-09T12:02:31;5.63;;;1.13;;
34278;SDS011;20538;51.528;9.942;2022-09-09T12:05:12;5.28;;;0.90;;
34278;SDS011;20538;51.528;9.942;2022-09-09T12:07:50;3.95;;;0.70;;
34278;SDS011;20538;51.528;9.942;2022-09-09T12:10:22;10.07;;;1.13;;
34278;SDS011;20538;51.528;9.942;2022-09-09T12:13:16;3.85;;;0.98;;
34278;SDS011;20538;51.528;9.942;2022-09-09T12:15:48;5.07;;;1.00;;
34278;SDS011;20538;51.528;9.942;2022-09-09T12:18:35;4.43;;;1.08;;
34278;SDS011;20538;51.528;9.942;2022-09-09T12:23:34;5.27;;;1.03;;
34278;SDS011;20538;51.528;9.942;2022-09-09T12:29:04;2.80;;;1.00;;
34278;SDS011;20538;51.528;9.942;2022-09-09T12:39:51;3.80;;;1.17;;
34278;SDS011;20538;51.528;9.942;2022-09-09T12:42:21;4.13;;;1.00;;
34278;SDS011;20538;51.528;9.942;2022-09-09T12:44:51;8.32;;;1.17;;
34278;SDS011;20538;51.528;9.942;2022-09-09T12:47:17;1.70;;;0.85;;
34278;SDS011;20538;51.528;9.942;2022-09-09T12:49:45;5.50;;;1.23;;
34278;SDS011;20538;51.528;9.942;2022-09-09T12:52:17;2.47;;;0.95;;
34278;SDS011;20538;51.528;9.942;2022-09-09T12:55:03;4.80;;;1.00;;
34278;SDS011;20538;51.528;9.942;2022-09-09T12:57:37;4.00;;;0.90;;
34278;SDS011;20538;51.528;9.942;2022-09-09T13:00:11;5.22;;;1.50;;
34278;SDS011;20538;51.528;9.942;2022-09-09T13:02:45;4.63;;;1.00;;
34278;SDS011;20538;51.528;9.942;2022-09-09T13:05:14;4.93;;;1.05;;
34278;SDS011;20538;51.528;9.942;2022-09-09T13:07:42;3.15;;;0.90;;
34278;SDS011;20538;51.528;9.942;2022-09-09T13:10:13;3.35;;;1.02;;
34278;SDS011;20538;51.528;9.942;2022-09-09T13:12:40;5.03;;;1.00;;
34278;SDS011;20538;51.528;9.942;2022-09-09T13:15:19;2.15;;;0.90;;
34278;SDS011;20538;51.528;9.942;2022-09-09T13:17:56;3.30;;;0.93;;
34278;SDS011;20538;51.528;9.942;2022-09-09T13:20:25;7.78;;;1.25;;
34278;SDS011;20538;51.528;9.942;2022-09-09T13:22:54;3.67;;;1.17;;
34278;SDS011;20538;51.528;9.942;2022-09-09T13:25:25;3.28;;;1.08;;
34278;SDS011;20538;51.528;9.942;2022-09-09T13:28:02;1.60;;;0.90;;
34278;SDS011;20538;51.528;9.942;2022-09-09T13:33:01;6.53;;;0.98;;
34278;SDS011;20538;51.528;9.942;2022-09-09T13:35:58;4.70;;;1.00;;
34278;SDS011;20538;51.528;9.942;2022-09-09T13:38:28;4.22;;;1.15;;
34278;SDS011;20538;51.528;9.942;2022-09-09T13:40:57;4.03;;;1.05;;
34278;SDS011;20538;51.528;9.942;2022-09-09T13:43:27;5.20;;;1.10;;
34278;SDS011;20538;51.528;9.942;2022-09-09T13:45:58;5.45;;;1.30;;
34278;SDS011;20538;51.528;9.942;2022-09-09T13:48:26;7.97;;;1.35;;
34278;SDS011;20538;51.528;9.942;2022-09-09T13:51:35;4.50;;;1.20;;
34278;SDS011;20538;51.528;9.942;2022-09-09T13:53:59;5.32;;;1.35;;
34278;SDS011;20538;51.528;9.942;2022-09-09T13:56:25;3.22;;;0.98;;
34278;SDS011;20538;51.528;9.942;2022-09-09T13:58:51;1.58;;;0.90;;
34278;SDS011;20538;51.528;9.942;2022-09-09T14:01:17;2.78;;;0.95;;
34278;SDS011;20538;51.528;9.942;2022-09-09T14:03:42;1.70;;;0.77;;
34278;SDS011;20538;51.528;9.942;2022-09-09T14:06:08;3.97;;;1.05;;
34278;SDS011;20538;51.528;9.942;2022-09-09T14:08:35;3.75;;;1.13;;
34278;SDS011;20538;51.528;9.942;2022-09-09T14:11:04;2.53;;;0.80;;
34278;SDS011;20538;51.528;9.942;2022-09-09T14:13:30;3.03;;;0.80;;
34278;SDS011;20538;51.528;9.942;2022-09-09T14:15:56;1.85;;;0.70;;
34278;SDS011;20538;51.528;9.942;2022-09-09T14:18:22;3.03;;;1.00;;
34278;SDS011;20538;51.528;9.942;2022-09-09T14:20:48;3.03;;;0.75;;
34278;SDS011;20538;51.528;9.942;2022-09-09T14:23:15;2.78;;;0.82;;
34278;SDS011;20538;51.528;9.942;2022-09-09T14:25:42;3.08;;;0.80;;
34278;SDS011;20538;51.528;9.942;2022-09-09T14:28:11;1.45;;;0.80;;
34278;SDS011;20538;51.528;9.942;2022-09-09T14:30:39;3.00;;;1.17;;
34278;SDS011;20538;51.528;9.942;2022-09-09T14:33:06;3.03;;;0.77;;
34278;SDS011;20538;51.528;9.942;2022-09-09T14:35:33;5.35;;;0.65;;
34278;SDS011;20538;51.528;9.942;2022-09-09T14:37:59;3.70;;;0.65;;
34278;SDS011;20538;51.528;9.942;2022-09-09T14:40:26;2.03;;;0.85;;
34278;SDS011;20538;51.528;9.942;2022-09-09T14:42:52;3.63;;;0.93;;
34278;SDS011;20538;51.528;9.942;2022-09-09T14:45:18;2.53;;;0.77;;
34278;SDS011;20538;51.528;9.942;2022-09-09T14:47:44;2.50;;;0.60;;
34278;SDS011;20538;51.528;9.942;2022-09-09T14:50:10;2.70;;;0.70;;
34278;SDS011;20538;51.528;9.942;2022-09-09T14:52:37;3.97;;;1.02;;
34278;SDS011;20538;51.528;9.942;2022-09-09T14:55:03;4.55;;;0.75;;
34278;SDS011;20538;51.528;9.942;2022-09-09T14:57:30;4.03;;;0.75;;
34278;SDS011;20538;51.528;9.942;2022-09-09T14:59:56;1.60;;;0.70;;
34278;SDS011;20538;51.528;9.942;2022-09-09T15:02:21;2.58;;;0.60;;
34278;SDS011;20538;51.528;9.942;2022-09-09T15:04:47;3.33;;;0.73;;
34278;SDS011;20538;51.528;9.942;2022-09-09T15:07:15;5.57;;;1.48;;
34278;SDS011;20538;51.528;9.942;2022-09-09T15:09:41;3.95;;;1.00;;
34278;SDS011;20538;51.528;9.942;2022-09-09T15:12:07;10.57;;;1.83;;
34278;SDS011;20538;51.528;9.942;2022-09-09T15:14:33;5.78;;;1.02;;
34278;SDS011;20538;51.528;9.942;2022-09-09T15:17:00;2.22;;;1.02;;
34278;SDS011;20538;51.528;9.942;2022-09-09T15:19:26;3.03;;;0.80;;
34278;SDS011;20538;51.528;9.942;2022-09-09T15:21:52;2.28;;;0.80;;
34278;SDS011;20538;51.528;9.942;2022-09-09T15:24:17;3.70;;;0.80;;
34278;SDS011;20538;51.528;9.942;2022-09-09T15:26:43;7.55;;;1.80;;
34278;SDS011;20538;51.528;9.942;2022-09-09T15:29:08;4.57;;;0.90;;
34278;SDS011;20538;51.528;9.942;2022-09-09T15:31:34;5.22;;;1.20;;
34278;SDS011;20538;51.528;9.942;2022-09-09T15:34:02;6.95;;;1.42;;
34278;SDS011;20538;51.528;9.942;2022-09-09T15:38:59;2.30;;;0.95;;
34278;SDS011;20538;51.528;9.942;2022-09-09T15:41:26;2.58;;;0.80;;
34278;SDS011;20538;51.528;9.942;2022-09-09T15:43:54;1.80;;;0.80;;
34278;SDS011;20538;51.528;9.942;2022-09-09T15:48:57;2.28;;;0.85;;
34278;SDS011;20538;51.528;9.942;2022-09-09T15:51:27;1.77;;;0.77;;
34278;SDS011;20538;51.528;9.942;2022-09-09T15:53:56;2.63;;;0.85;;
34278;SDS011;20538;51.528;9.942;2022-09-09T15:56:27;4.00;;;1.00;;
34278;SDS011;20538;51.528;9.942;2022-09-09T15:58:55;5.82;;;0.90;;
34278;SDS011;20538;51.528;9.942;2022-09-09T16:01:22;4.03;;;0.80;;
34278;SDS011;20538;51.528;9.942;2022-09-09T16:03:48;3.92;;;1.20;;
34278;SDS011;20538;51.528;9.942;2022-09-09T16:06:16;4.50;;;1.02;;
34278;SDS011;20538;51.528;9.942;2022-09-09T16:08:46;2.10;;;0.90;;
34278;SDS011;20538;51.528;9.942;2022-09-09T16:11:18;2.67;;;0.80;;
34278;SDS011;20538;51.528;9.942;2022-09-09T16:13:45;3.72;;;0.90;;
34278;SDS011;20538;51.528;9.942;2022-09-09T16:16:15;6.65;;;1.33;;
34278;SDS011;20538;51.528;9.942;2022-09-09T16:18:49;1.55;;;0.70;;
34278;SDS011;20538;51.528;9.942;2022-09-09T16:21:21;4.03;;;0.93;;
34278;SDS011;20538;51.528;9.942;2022-09-09T16:23:55;3.38;;;0.95;;
34278;SDS011;20538;51.528;9.942;2022-09-09T16:26:22;3.15;;;0.70;;
34278;SDS011;20538;51.528;9.942;2022-09-09T16:28:48;1.42;;;0.60;;
34278;SDS011;20538;51.528;9.942;2022-09-09T16:31:20;3.15;;;0.98;;
34278;SDS011;20538;51.528;9.942;2022-09-09T16:33:47;2.58;;;0.90;;
34278;SDS011;20538;51.528;9.942;2022-09-09T16:36:16;1.88;;;0.80;;
34278;SDS011;20538;51.528;9.942;2022-09-09T16:38:45;1.63;;;0.73;;
34278;SDS011;20538;51.528;9.942;2022-09-09T16:41:11;6.53;;;1.27;;
34278;SDS011;20538;51.528;9.942;2022-09-09T16:43:39;5.28;;;0.90;;
34278;SDS011;20538;51.528;9.942;2022-09-09T16:46:15;3.53;;;0.70;;
34278;SDS011;20538;51.528;9.942;2022-09-09T16:48:43;3.47;;;0.73;;
34278;SDS011;20538;51.528;9.942;2022-09-09T16:51:17;3.17;;;0.90;;
34278;SDS011;20538;51.528;9.942;2022-09-09T16:53:44;6.35;;;0.90;;
34278;SDS011;20538;51.528;9.942;2022-09-09T16:56:15;2.58;;;0.90;;
34278;SDS011;20538;51.528;9.942;2022-09-09T16:58:42;2.58;;;0.70;;
34278;SDS011;20538;51.528;9.942;2022-09-09T17:01:09;3.30;;;0.95;;
34278;SDS011;20538;51.528;9.942;2022-09-09T17:03:39;3.28;;;1.00;;
34278;SDS011;20538;51.528;9.942;2022-09-09T17:06:08;4.43;;;1.10;;
34278;SDS011;20538;51.528;9.942;2022-09-09T17:08:38;7.78;;;1.00;;
34278;SDS011;20538;51.528;9.942;2022-09-09T17:11:24;8.10;;;1.00;;
34278;SDS011;20538;51.528;9.942;2022-09-09T17:13:52;8.00;;;1.10;;
34278;SDS011;20538;51.528;9.942;2022-09-09T17:16:20;4.30;;;0.98;;
34278;SDS011;20538;51.528;9.942;2022-09-09T17:18:50;9.93;;;1.50;;
34278;SDS011;20538;51.528;9.942;2022-09-09T17:21:18;6.78;;;1.08;;
34278;SDS011;20538;51.528;9.942;2022-09-09T17:23:45;5.82;;;1.10;;
34278;SDS011;20538;51.528;9.942;2022-09-09T17:26:12;7.20;;;1.10;;
34278;SDS011;20538;51.528;9.942;2022-09-09T17:28:40;6.15;;;1.20;;
34278;SDS011;20538;51.528;9.942;2022-09-09T17:31:07;8.90;;;1.40;;
34278;SDS011;20538;51.528;9.942;2022-09-09T17:33:34;3.55;;;1.10;;
34278;SDS011;20538;51.528;9.942;2022-09-09T17:36:02;3.90;;;1.10;;
34278;SDS011;20538;51.528;9.942;2022-09-09T17:38:33;5.82;;;1.10;;
34278;SDS011;20538;51.528;9.942;2022-09-09T17:41:09;4.13;;;1.13;;
34278;SDS011;20538;51.528;9.942;2022-09-09T17:43:36;5.18;;;1.10;;
34278;SDS011;20538;51.528;9.942;2022-09-09T17:46:19;4.70;;;1.40;;